sensor_id;sensor_type;location;lat;lon;timestamp;P1;durP1;ratioP1;P2;durP2;ratioP2
29662;SDS011;16578;53.266;7.920;2023-12-14T00:01:10;7.03;;;4.20;;
29662;SDS011;16578;53.266;7.920;2023-12-14T00:03:38;6.82;;;4.32;;
29662;SDS011;16578;53.266;7.920;2023-12-14T00:06:06;7.07;;;4.38;;
29662;SDS011;16578;53.266;7.920;2023-12-14T00:08:35;6.13;;;4.15;;
29662;SDS011;16578;53.266;7.920;2023-12-14T00:11:07;4.53;;;3.65;;
29662;SDS011;16578;53.266;7.920;2023-12-14T00:13:34;5.88;;;4.03;;
29662;SDS011;16578;53.266;7.920;2023-12-14T00:16:00;6.00;;;4.03;;
29662;SDS011;16578;53.266;7.920;2023-12-14T00:18:26;6.20;;;4.50;;
29662;SDS011;16578;53.266;7.920;2023-12-14T00:20:51;6.00;;;4.20;;
29662;SDS011;16578;53.266;7.920;2023-12-14T00:23:19;7.30;;;4.75;;
29662;SDS011;16578;53.266;7.920;2023-12-14T00:25:45;12.27;;;4.50;;
29662;SDS011;16578;53.266;7.920;2023-12-14T00:28:10;6.78;;;4.57;;
29662;SDS011;16578;53.266;7.920;2023-12-14T00:30:36;5.85;;;4.32;;
29662;SDS011;16578;53.266;7.920;2023-12-14T00:33:02;6.22;;;4.18;;
29662;SDS011;16578;53.266;7.920;2023-12-14T00:35:27;6.32;;;4.30;;
29662;SDS011;16578;53.266;7.920;2023-12-14T00:37:53;5.68;;;3.97;;
29662;SDS011;16578;53.266;7.920;2023-12-14T00:40:18;6.00;;;4.00;;
29662;SDS011;16578;53.266;7.920;2023-12-14T00:42:44;7.70;;;3.88;;
29662;SDS011;16578;53.266;7.920;2023-12-14T00:45:10;6.57;;;3.95;;
29662;SDS011;16578;53.266;7.920;2023-12-14T00:47:35;6.80;;;4.40;;
29662;SDS011;16578;53.266;7.920;2023-12-14T00:50:01;6.63;;;4.10;;
29662;SDS011;16578;53.266;7.920;2023-12-14T00:52:27;6.43;;;4.13;;
29662;SDS011;16578;53.266;7.920;2023-12-14T00:54:53;8.35;;;3.67;;
29662;SDS011;16578;53.266;7.920;2023-12-14T00:57:18;8.55;;;4.10;;
29662;SDS011;16578;53.266;7.920;2023-12-14T00:59:44;8.32;;;4.32;;
29662;SDS011;16578;53.266;7.920;2023-12-14T01:02:09;5.90;;;3.83;;
29662;SDS011;16578;53.266;7.920;2023-12-14T01:04:35;7.72;;;3.38;;
29662;SDS011;16578;53.266;7.920;2023-12-14T01:07:01;9.45;;;4.57;;
29662;SDS011;16578;53.266;7.920;2023-12-14T01:09:27;8.07;;;3.97;;
29662;SDS011;16578;53.266;7.920;2023-12-14T01:11:53;9.93;;;4.53;;
29662;SDS011;16578;53.266;7.920;2023-12-14T01:14:18;6.70;;;4.22;;
29662;SDS011;16578;53.266;7.920;2023-12-14T01:16:44;8.60;;;4.60;;
29662;SDS011;16578;53.266;7.920;2023-12-14T01:19:09;6.05;;;4.18;;
29662;SDS011;16578;53.266;7.920;2023-12-14T01:21:35;9.68;;;4.40;;
29662;SDS011;16578;53.266;7.920;2023-12-14T01:24:01;7.85;;;4.93;;
29662;SDS011;16578;53.266;7.920;2023-12-14T01:26:26;8.32;;;4.13;;
29662;SDS011;16578;53.266;7.920;2023-12-14T01:28:52;7.35;;;4.72;;
29662;SDS011;16578;53.266;7.920;2023-12-14T01:31:18;7.68;;;5.18;;
29662;SDS011;16578;53.266;7.920;2023-12-14T01:33:44;9.32;;;5.47;;
29662;SDS011;16578;53.266;7.920;2023-12-14T01:36:19;8.15;;;5.30;;
29662;SDS011;16578;53.266;7.920;2023-12-14T01:38:48;11.65;;;5.97;;
29662;SDS011;16578;53.266;7.920;2023-12-14T01:41:14;13.60;;;5.95;;
29662;SDS011;16578;53.266;7.920;2023-12-14T01:43:40;11.32;;;6.32;;
29662;SDS011;16578;53.266;7.920;2023-12-14T01:46:05;9.60;;;6.10;;
29662;SDS011;16578;53.266;7.920;2023-12-14T01:48:31;9.35;;;5.97;;
29662;SDS011;16578;53.266;7.920;2023-12-14T01:50:57;9.07;;;6.20;;
29662;SDS011;16578;53.266;7.920;2023-12-14T01:53:22;8.60;;;5.75;;
29662;SDS011;16578;53.266;7.920;2023-12-14T01:55:48;9.25;;;6.40;;
29662;SDS011;16578;53.266;7.920;2023-12-14T01:58:13;9.80;;;6.55;;
29662;SDS011;16578;53.266;7.920;2023-12-14T02:00:41;14.88;;;7.05;;
29662;SDS011;16578;53.266;7.920;2023-12-14T02:03:13;11.25;;;6.32;;
29662;SDS011;16578;53.266;7.920;2023-12-14T02:05:39;11.93;;;6.80;;
29662;SDS011;16578;53.266;7.920;2023-12-14T02:08:07;11.57;;;6.63;;
29662;SDS011;16578;53.266;7.920;2023-12-14T02:10:33;9.80;;;7.03;;
29662;SDS011;16578;53.266;7.920;2023-12-14T02:13:00;14.18;;;7.07;;
29662;SDS011;16578;53.266;7.920;2023-12-14T02:15:29;11.93;;;6.38;;
29662;SDS011;16578;53.266;7.920;2023-12-14T02:17:55;12.77;;;6.85;;
29662;SDS011;16578;53.266;7.920;2023-12-14T02:20:21;12.10;;;7.03;;
29662;SDS011;16578;53.266;7.920;2023-12-14T02:22:56;13.07;;;6.90;;
29662;SDS011;16578;53.266;7.920;2023-12-14T02:25:22;9.82;;;6.53;;
29662;SDS011;16578;53.266;7.920;2023-12-14T02:27:48;10.75;;;6.72;;
29662;SDS011;16578;53.266;7.920;2023-12-14T02:30:15;12.30;;;7.22;;
29662;SDS011;16578;53.266;7.920;2023-12-14T02:32:41;12.95;;;7.68;;
29662;SDS011;16578;53.266;7.920;2023-12-14T02:35:07;9.00;;;6.63;;
29662;SDS011;16578;53.266;7.920;2023-12-14T02:37:33;12.60;;;7.03;;
29662;SDS011;16578;53.266;7.920;2023-12-14T02:42:28;11.02;;;6.78;;
29662;SDS011;16578;53.266;7.920;2023-12-14T02:44:54;11.48;;;7.30;;
29662;SDS011;16578;53.266;7.920;2023-12-14T02:47:19;12.10;;;6.95;;
29662;SDS011;16578;53.266;7.920;2023-12-14T02:49:45;10.00;;;6.82;;
29662;SDS011;16578;53.266;7.920;2023-12-14T02:52:10;10.68;;;6.82;;
29662;SDS011;16578;53.266;7.920;2023-12-14T02:54:38;11.52;;;6.05;;
29662;SDS011;16578;53.266;7.920;2023-12-14T02:57:04;12.27;;;7.63;;
29662;SDS011;16578;53.266;7.920;2023-12-14T02:59:29;11.48;;;6.78;;
29662;SDS011;16578;53.266;7.920;2023-12-14T03:01:55;9.75;;;6.50;;
29662;SDS011;16578;53.266;7.920;2023-12-14T03:04:20;12.27;;;6.80;;
29662;SDS011;16578;53.266;7.920;2023-12-14T03:06:46;12.25;;;7.50;;
29662;SDS011;16578;53.266;7.920;2023-12-14T03:09:12;10.20;;;6.88;;
29662;SDS011;16578;53.266;7.920;2023-12-14T03:11:37;11.23;;;7.07;;
29662;SDS011;16578;53.266;7.920;2023-12-14T03:14:03;11.00;;;5.95;;
29662;SDS011;16578;53.266;7.920;2023-12-14T03:16:29;11.27;;;7.40;;
29662;SDS011;16578;53.266;7.920;2023-12-14T03:18:54;11.10;;;6.50;;
29662;SDS011;16578;53.266;7.920;2023-12-14T03:21:21;9.82;;;6.82;;
29662;SDS011;16578;53.266;7.920;2023-12-14T03:23:47;14.20;;;7.72;;
29662;SDS011;16578;53.266;7.920;2023-12-14T03:26:13;13.02;;;7.43;;
29662;SDS011;16578;53.266;7.920;2023-12-14T03:28:38;13.25;;;7.88;;
29662;SDS011;16578;53.266;7.920;2023-12-14T03:31:04;13.10;;;7.70;;
29662;SDS011;16578;53.266;7.920;2023-12-14T03:33:30;11.27;;;7.18;;
29662;SDS011;16578;53.266;7.920;2023-12-14T03:35:55;12.70;;;8.00;;
29662;SDS011;16578;53.266;7.920;2023-12-14T03:38:21;18.17;;;7.60;;
29662;SDS011;16578;53.266;7.920;2023-12-14T03:40:47;13.02;;;7.57;;
29662;SDS011;16578;53.266;7.920;2023-12-14T03:43:12;13.32;;;7.80;;
29662;SDS011;16578;53.266;7.920;2023-12-14T03:45:38;17.58;;;8.90;;
29662;SDS011;16578;53.266;7.920;2023-12-14T03:48:03;14.60;;;7.82;;
29662;SDS011;16578;53.266;7.920;2023-12-14T03:50:29;14.65;;;8.02;;
29662;SDS011;16578;53.266;7.920;2023-12-14T03:52:55;12.95;;;7.72;;
29662;SDS011;16578;53.266;7.920;2023-12-14T03:55:20;15.50;;;9.65;;
29662;SDS011;16578;53.266;7.920;2023-12-14T03:57:46;16.48;;;9.45;;
29662;SDS011;16578;53.266;7.920;2023-12-14T04:00:12;13.38;;;8.63;;
29662;SDS011;16578;53.266;7.920;2023-12-14T04:02:39;16.10;;;9.13;;
29662;SDS011;16578;53.266;7.920;2023-12-14T04:05:06;13.93;;;8.90;;
29662;SDS011;16578;53.266;7.920;2023-12-14T04:07:33;16.63;;;9.02;;
29662;SDS011;16578;53.266;7.920;2023-12-14T04:10:05;14.20;;;8.73;;
29662;SDS011;16578;53.266;7.920;2023-12-14T04:12:38;14.98;;;8.77;;
29662;SDS011;16578;53.266;7.920;2023-12-14T04:15:04;15.20;;;9.32;;
29662;SDS011;16578;53.266;7.920;2023-12-14T04:17:31;15.48;;;8.80;;
29662;SDS011;16578;53.266;7.920;2023-12-14T04:19:57;20.20;;;9.77;;
29662;SDS011;16578;53.266;7.920;2023-12-14T04:22:23;14.25;;;8.63;;
29662;SDS011;16578;53.266;7.920;2023-12-14T04:24:49;15.70;;;8.70;;
29662;SDS011;16578;53.266;7.920;2023-12-14T04:27:15;16.33;;;9.27;;
29662;SDS011;16578;53.266;7.920;2023-12-14T04:29:41;16.15;;;8.85;;
29662;SDS011;16578;53.266;7.920;2023-12-14T04:32:08;14.32;;;8.82;;
29662;SDS011;16578;53.266;7.920;2023-12-14T04:34:34;15.93;;;9.60;;
29662;SDS011;16578;53.266;7.920;2023-12-14T04:36:59;18.75;;;8.93;;
29662;SDS011;16578;53.266;7.920;2023-12-14T04:39:25;15.70;;;8.65;;
29662;SDS011;16578;53.266;7.920;2023-12-14T04:41:51;21.20;;;10.35;;
29662;SDS011;16578;53.266;7.920;2023-12-14T04:44:18;18.50;;;9.80;;
29662;SDS011;16578;53.266;7.920;2023-12-14T04:46:47;18.08;;;9.73;;
29662;SDS011;16578;53.266;7.920;2023-12-14T04:49:13;16.40;;;8.60;;
29662;SDS011;16578;53.266;7.920;2023-12-14T04:51:39;16.67;;;9.18;;
29662;SDS011;16578;53.266;7.920;2023-12-14T04:54:05;16.70;;;9.32;;
29662;SDS011;16578;53.266;7.920;2023-12-14T04:56:30;15.38;;;9.32;;
29662;SDS011;16578;53.266;7.920;2023-12-14T04:58:56;13.98;;;8.95;;
29662;SDS011;16578;53.266;7.920;2023-12-14T05:01:22;22.20;;;9.75;;
29662;SDS011;16578;53.266;7.920;2023-12-14T05:03:47;17.55;;;10.27;;
29662;SDS011;16578;53.266;7.920;2023-12-14T05:06:13;16.25;;;9.40;;
29662;SDS011;16578;53.266;7.920;2023-12-14T05:08:38;18.13;;;10.45;;
29662;SDS011;16578;53.266;7.920;2023-12-14T05:11:04;17.60;;;10.73;;
29662;SDS011;16578;53.266;7.920;2023-12-14T05:13:30;20.95;;;9.80;;
29662;SDS011;16578;53.266;7.920;2023-12-14T05:15:56;20.05;;;10.18;;
29662;SDS011;16578;53.266;7.920;2023-12-14T05:18:24;24.42;;;9.98;;
29662;SDS011;16578;53.266;7.920;2023-12-14T05:20:50;21.05;;;10.40;;
29662;SDS011;16578;53.266;7.920;2023-12-14T05:23:16;20.05;;;10.48;;
29662;SDS011;16578;53.266;7.920;2023-12-14T05:25:41;16.25;;;9.93;;
29662;SDS011;16578;53.266;7.920;2023-12-14T05:28:07;20.85;;;11.15;;
29662;SDS011;16578;53.266;7.920;2023-12-14T05:30:33;18.25;;;10.25;;
29662;SDS011;16578;53.266;7.920;2023-12-14T05:32:58;18.42;;;9.95;;
29662;SDS011;16578;53.266;7.920;2023-12-14T05:35:24;18.45;;;10.38;;
29662;SDS011;16578;53.266;7.920;2023-12-14T05:37:49;19.55;;;10.60;;
29662;SDS011;16578;53.266;7.920;2023-12-14T05:40:15;17.92;;;10.73;;
29662;SDS011;16578;53.266;7.920;2023-12-14T05:42:40;19.58;;;10.25;;
29662;SDS011;16578;53.266;7.920;2023-12-14T05:45:06;20.48;;;10.55;;
29662;SDS011;16578;53.266;7.920;2023-12-14T05:47:32;19.33;;;10.38;;
29662;SDS011;16578;53.266;7.920;2023-12-14T05:49:59;15.20;;;9.80;;
29662;SDS011;16578;53.266;7.920;2023-12-14T05:52:28;18.33;;;9.75;;
29662;SDS011;16578;53.266;7.920;2023-12-14T05:54:54;19.90;;;10.45;;
29662;SDS011;16578;53.266;7.920;2023-12-14T05:57:19;19.70;;;10.55;;
29662;SDS011;16578;53.266;7.920;2023-12-14T05:59:45;23.05;;;11.32;;
29662;SDS011;16578;53.266;7.920;2023-12-14T06:02:11;27.40;;;11.43;;
29662;SDS011;16578;53.266;7.920;2023-12-14T06:04:37;22.15;;;10.82;;
29662;SDS011;16578;53.266;7.920;2023-12-14T06:07:02;24.70;;;10.10;;
29662;SDS011;16578;53.266;7.920;2023-12-14T06:09:28;20.98;;;10.88;;
29662;SDS011;16578;53.266;7.920;2023-12-14T06:12:03;19.67;;;11.73;;
29662;SDS011;16578;53.266;7.920;2023-12-14T06:14:29;22.02;;;11.00;;
29662;SDS011;16578;53.266;7.920;2023-12-14T06:16:56;25.17;;;12.10;;
29662;SDS011;16578;53.266;7.920;2023-12-14T06:19:22;27.38;;;11.98;;
29662;SDS011;16578;53.266;7.920;2023-12-14T06:21:47;18.23;;;10.88;;
29662;SDS011;16578;53.266;7.920;2023-12-14T06:24:13;21.40;;;11.25;;
29662;SDS011;16578;53.266;7.920;2023-12-14T06:26:43;22.50;;;11.80;;
29662;SDS011;16578;53.266;7.920;2023-12-14T06:29:09;23.70;;;13.05;;
29662;SDS011;16578;53.266;7.920;2023-12-14T06:31:36;22.67;;;11.32;;
29662;SDS011;16578;53.266;7.920;2023-12-14T06:34:02;19.20;;;10.18;;
29662;SDS011;16578;53.266;7.920;2023-12-14T06:36:32;18.40;;;10.98;;
29662;SDS011;16578;53.266;7.920;2023-12-14T06:38:58;22.50;;;11.18;;
29662;SDS011;16578;53.266;7.920;2023-12-14T06:41:25;16.73;;;10.65;;
29662;SDS011;16578;53.266;7.920;2023-12-14T06:43:52;18.30;;;10.07;;
29662;SDS011;16578;53.266;7.920;2023-12-14T06:46:18;17.33;;;10.27;;
29662;SDS011;16578;53.266;7.920;2023-12-14T06:48:44;18.48;;;10.75;;
29662;SDS011;16578;53.266;7.920;2023-12-14T06:51:10;18.10;;;10.88;;
29662;SDS011;16578;53.266;7.920;2023-12-14T06:53:35;20.85;;;10.13;;
29662;SDS011;16578;53.266;7.920;2023-12-14T06:58:29;19.15;;;9.65;;
29662;SDS011;16578;53.266;7.920;2023-12-14T07:00:56;19.33;;;10.50;;
29662;SDS011;16578;53.266;7.920;2023-12-14T07:03:22;19.75;;;9.95;;
29662;SDS011;16578;53.266;7.920;2023-12-14T07:05:47;39.05;;;10.77;;
29662;SDS011;16578;53.266;7.920;2023-12-14T07:08:13;22.15;;;10.65;;
29662;SDS011;16578;53.266;7.920;2023-12-14T07:10:40;17.98;;;10.27;;
29662;SDS011;16578;53.266;7.920;2023-12-14T07:13:07;16.67;;;10.10;;
29662;SDS011;16578;53.266;7.920;2023-12-14T07:15:33;17.00;;;9.95;;
29662;SDS011;16578;53.266;7.920;2023-12-14T07:17:58;20.00;;;10.32;;
29662;SDS011;16578;53.266;7.920;2023-12-14T07:20:24;18.05;;;10.40;;
29662;SDS011;16578;53.266;7.920;2023-12-14T07:22:50;17.90;;;9.55;;
29662;SDS011;16578;53.266;7.920;2023-12-14T07:25:15;19.00;;;10.52;;
29662;SDS011;16578;53.266;7.920;2023-12-14T07:27:41;19.60;;;10.63;;
29662;SDS011;16578;53.266;7.920;2023-12-14T07:30:08;21.98;;;9.85;;
29662;SDS011;16578;53.266;7.920;2023-12-14T07:32:34;15.85;;;10.27;;
29662;SDS011;16578;53.266;7.920;2023-12-14T07:35:00;16.92;;;9.77;;
29662;SDS011;16578;53.266;7.920;2023-12-14T07:37:25;19.98;;;10.50;;
29662;SDS011;16578;53.266;7.920;2023-12-14T07:39:51;19.70;;;9.88;;
29662;SDS011;16578;53.266;7.920;2023-12-14T07:42:17;18.25;;;10.13;;
29662;SDS011;16578;53.266;7.920;2023-12-14T07:44:45;20.05;;;10.88;;
29662;SDS011;16578;53.266;7.920;2023-12-14T07:47:11;17.70;;;9.55;;
29662;SDS011;16578;53.266;7.920;2023-12-14T07:49:36;16.30;;;10.00;;
29662;SDS011;16578;53.266;7.920;2023-12-14T07:52:02;18.67;;;10.52;;
29662;SDS011;16578;53.266;7.920;2023-12-14T07:54:28;21.90;;;10.88;;
29662;SDS011;16578;53.266;7.920;2023-12-14T07:56:54;18.17;;;9.23;;
29662;SDS011;16578;53.266;7.920;2023-12-14T07:59:19;16.38;;;10.10;;
29662;SDS011;16578;53.266;7.920;2023-12-14T08:01:46;18.75;;;9.63;;
29662;SDS011;16578;53.266;7.920;2023-12-14T08:04:11;19.67;;;11.35;;
29662;SDS011;16578;53.266;7.920;2023-12-14T08:06:37;18.27;;;9.60;;
29662;SDS011;16578;53.266;7.920;2023-12-14T08:09:06;13.55;;;8.50;;
29662;SDS011;16578;53.266;7.920;2023-12-14T08:11:33;16.73;;;9.32;;
29662;SDS011;16578;53.266;7.920;2023-12-14T08:13:59;15.90;;;9.30;;
29662;SDS011;16578;53.266;7.920;2023-12-14T08:16:25;15.60;;;9.57;;
29662;SDS011;16578;53.266;7.920;2023-12-14T08:18:50;20.00;;;10.55;;
29662;SDS011;16578;53.266;7.920;2023-12-14T08:21:17;15.50;;;9.10;;
29662;SDS011;16578;53.266;7.920;2023-12-14T08:23:43;14.90;;;9.55;;
29662;SDS011;16578;53.266;7.920;2023-12-14T08:26:09;15.23;;;9.27;;
29662;SDS011;16578;53.266;7.920;2023-12-14T08:28:36;15.38;;;9.73;;
29662;SDS011;16578;53.266;7.920;2023-12-14T08:31:02;15.20;;;9.52;;
29662;SDS011;16578;53.266;7.920;2023-12-14T08:33:29;18.55;;;10.77;;
29662;SDS011;16578;53.266;7.920;2023-12-14T08:35:55;16.52;;;9.27;;
29662;SDS011;16578;53.266;7.920;2023-12-14T08:38:21;16.95;;;9.85;;
29662;SDS011;16578;53.266;7.920;2023-12-14T08:40:46;15.57;;;9.30;;
29662;SDS011;16578;53.266;7.920;2023-12-14T08:43:12;14.82;;;10.27;;
29662;SDS011;16578;53.266;7.920;2023-12-14T08:45:38;20.48;;;10.00;;
29662;SDS011;16578;53.266;7.920;2023-12-14T08:48:04;20.40;;;10.25;;
29662;SDS011;16578;53.266;7.920;2023-12-14T08:50:30;16.27;;;9.63;;
29662;SDS011;16578;53.266;7.920;2023-12-14T08:52:55;15.48;;;9.65;;
29662;SDS011;16578;53.266;7.920;2023-12-14T08:55:23;12.38;;;7.82;;
29662;SDS011;16578;53.266;7.920;2023-12-14T08:57:49;19.30;;;10.20;;
29662;SDS011;16578;53.266;7.920;2023-12-14T09:00:16;16.60;;;9.18;;
29662;SDS011;16578;53.266;7.920;2023-12-14T09:02:43;18.43;;;9.47;;
29662;SDS011;16578;53.266;7.920;2023-12-14T09:05:11;17.23;;;10.02;;
29662;SDS011;16578;53.266;7.920;2023-12-14T09:07:37;18.02;;;9.93;;
29662;SDS011;16578;53.266;7.920;2023-12-14T09:10:03;15.38;;;9.25;;
29662;SDS011;16578;53.266;7.920;2023-12-14T09:12:29;16.30;;;9.38;;
29662;SDS011;16578;53.266;7.920;2023-12-14T09:14:55;19.63;;;9.18;;
29662;SDS011;16578;53.266;7.920;2023-12-14T09:17:21;15.82;;;9.35;;
29662;SDS011;16578;53.266;7.920;2023-12-14T09:19:46;15.98;;;10.40;;
29662;SDS011;16578;53.266;7.920;2023-12-14T09:22:12;14.15;;;8.85;;
29662;SDS011;16578;53.266;7.920;2023-12-14T09:24:37;16.25;;;9.57;;
29662;SDS011;16578;53.266;7.920;2023-12-14T09:27:03;15.50;;;9.93;;
29662;SDS011;16578;53.266;7.920;2023-12-14T09:29:32;16.13;;;9.15;;
29662;SDS011;16578;53.266;7.920;2023-12-14T09:34:23;14.10;;;8.38;;
29662;SDS011;16578;53.266;7.920;2023-12-14T09:36:49;13.50;;;8.65;;
29662;SDS011;16578;53.266;7.920;2023-12-14T09:39:15;12.55;;;8.25;;
29662;SDS011;16578;53.266;7.920;2023-12-14T09:41:40;14.77;;;8.88;;
29662;SDS011;16578;53.266;7.920;2023-12-14T09:44:06;15.63;;;9.20;;
29662;SDS011;16578;53.266;7.920;2023-12-14T09:46:33;14.60;;;9.20;;
29662;SDS011;16578;53.266;7.920;2023-12-14T09:49:01;16.98;;;8.57;;
29662;SDS011;16578;53.266;7.920;2023-12-14T09:51:29;12.32;;;8.73;;
29662;SDS011;16578;53.266;7.920;2023-12-14T09:53:55;15.95;;;8.73;;
29662;SDS011;16578;53.266;7.920;2023-12-14T09:56:26;14.77;;;9.30;;
29662;SDS011;16578;53.266;7.920;2023-12-14T09:58:52;14.80;;;9.02;;
29662;SDS011;16578;53.266;7.920;2023-12-14T10:01:25;17.38;;;8.57;;
29662;SDS011;16578;53.266;7.920;2023-12-14T10:04:11;17.33;;;9.25;;
29662;SDS011;16578;53.266;7.920;2023-12-14T10:06:40;13.77;;;9.73;;
29662;SDS011;16578;53.266;7.920;2023-12-14T10:09:07;17.25;;;10.20;;
29662;SDS011;16578;53.266;7.920;2023-12-14T10:11:44;17.00;;;10.07;;
29662;SDS011;16578;53.266;7.920;2023-12-14T10:14:23;15.43;;;9.07;;
29662;SDS011;16578;53.266;7.920;2023-12-14T10:16:50;16.85;;;9.45;;
29662;SDS011;16578;53.266;7.920;2023-12-14T10:19:17;15.23;;;9.10;;
29662;SDS011;16578;53.266;7.920;2023-12-14T10:21:43;14.00;;;9.43;;
29662;SDS011;16578;53.266;7.920;2023-12-14T10:24:11;16.85;;;9.43;;
29662;SDS011;16578;53.266;7.920;2023-12-14T10:26:37;15.00;;;8.38;;
29662;SDS011;16578;53.266;7.920;2023-12-14T10:29:02;16.05;;;9.20;;
29662;SDS011;16578;53.266;7.920;2023-12-14T10:31:30;15.88;;;9.75;;
29662;SDS011;16578;53.266;7.920;2023-12-14T10:33:56;16.27;;;8.32;;
29662;SDS011;16578;53.266;7.920;2023-12-14T10:36:22;15.05;;;9.25;;
29662;SDS011;16578;53.266;7.920;2023-12-14T10:38:54;14.43;;;9.95;;
29662;SDS011;16578;53.266;7.920;2023-12-14T10:41:23;15.50;;;9.43;;
29662;SDS011;16578;53.266;7.920;2023-12-14T10:43:50;21.38;;;9.52;;
29662;SDS011;16578;53.266;7.920;2023-12-14T10:46:18;13.38;;;9.32;;
29662;SDS011;16578;53.266;7.920;2023-12-14T10:48:45;14.50;;;8.85;;
29662;SDS011;16578;53.266;7.920;2023-12-14T10:51:13;11.50;;;7.87;;
29662;SDS011;16578;53.266;7.920;2023-12-14T10:53:40;11.32;;;7.72;;
29662;SDS011;16578;53.266;7.920;2023-12-14T10:56:09;15.00;;;8.30;;
29662;SDS011;16578;53.266;7.920;2023-12-14T10:58:55;13.88;;;8.73;;
29662;SDS011;16578;53.266;7.920;2023-12-14T11:01:22;13.35;;;8.02;;
29662;SDS011;16578;53.266;7.920;2023-12-14T11:03:49;17.00;;;9.20;;
29662;SDS011;16578;53.266;7.920;2023-12-14T11:06:31;14.90;;;9.20;;
29662;SDS011;16578;53.266;7.920;2023-12-14T11:09:02;13.07;;;8.23;;
29662;SDS011;16578;53.266;7.920;2023-12-14T11:11:37;13.60;;;8.32;;
29662;SDS011;16578;53.266;7.920;2023-12-14T11:14:12;14.32;;;8.43;;
29662;SDS011;16578;53.266;7.920;2023-12-14T11:16:38;12.95;;;8.88;;
29662;SDS011;16578;53.266;7.920;2023-12-14T11:21:46;14.25;;;8.93;;
29662;SDS011;16578;53.266;7.920;2023-12-14T11:24:12;14.32;;;8.90;;
29662;SDS011;16578;53.266;7.920;2023-12-14T11:26:38;18.20;;;8.10;;
29662;SDS011;16578;53.266;7.920;2023-12-14T11:29:04;13.10;;;8.52;;
29662;SDS011;16578;53.266;7.920;2023-12-14T11:31:31;15.15;;;8.82;;
29662;SDS011;16578;53.266;7.920;2023-12-14T11:33:58;14.30;;;8.80;;
29662;SDS011;16578;53.266;7.920;2023-12-14T11:36:25;12.88;;;8.50;;
29662;SDS011;16578;53.266;7.920;2023-12-14T11:38:51;12.18;;;7.90;;
29662;SDS011;16578;53.266;7.920;2023-12-14T11:41:20;14.98;;;8.57;;
29662;SDS011;16578;53.266;7.920;2023-12-14T11:43:46;18.13;;;8.45;;
29662;SDS011;16578;53.266;7.920;2023-12-14T11:46:12;13.68;;;9.77;;
29662;SDS011;16578;53.266;7.920;2023-12-14T11:48:38;12.05;;;8.18;;
29662;SDS011;16578;53.266;7.920;2023-12-14T11:51:04;12.30;;;8.18;;
29662;SDS011;16578;53.266;7.920;2023-12-14T11:53:30;14.35;;;8.02;;
29662;SDS011;16578;53.266;7.920;2023-12-14T11:55:58;17.42;;;8.57;;
29662;SDS011;16578;53.266;7.920;2023-12-14T11:58:25;14.48;;;8.77;;
29662;SDS011;16578;53.266;7.920;2023-12-14T12:00:51;11.63;;;8.05;;
29662;SDS011;16578;53.266;7.920;2023-12-14T12:03:18;16.52;;;9.55;;
29662;SDS011;16578;53.266;7.920;2023-12-14T12:05:46;20.33;;;11.25;;
29662;SDS011;16578;53.266;7.920;2023-12-14T12:08:15;19.38;;;11.70;;
29662;SDS011;16578;53.266;7.920;2023-12-14T12:10:44;15.65;;;10.40;;
29662;SDS011;16578;53.266;7.920;2023-12-14T12:13:11;16.92;;;9.15;;
29662;SDS011;16578;53.266;7.920;2023-12-14T12:15:38;14.65;;;8.75;;
29662;SDS011;16578;53.266;7.920;2023-12-14T12:18:05;14.27;;;8.93;;
29662;SDS011;16578;53.266;7.920;2023-12-14T12:20:31;13.97;;;9.33;;
29662;SDS011;16578;53.266;7.920;2023-12-14T12:22:57;15.57;;;9.77;;
29662;SDS011;16578;53.266;7.920;2023-12-14T12:25:23;16.42;;;9.70;;
29662;SDS011;16578;53.266;7.920;2023-12-14T12:27:49;14.98;;;9.85;;
29662;SDS011;16578;53.266;7.920;2023-12-14T12:30:15;16.80;;;9.77;;
29662;SDS011;16578;53.266;7.920;2023-12-14T12:32:41;11.75;;;8.60;;
29662;SDS011;16578;53.266;7.920;2023-12-14T12:35:07;14.18;;;9.68;;
29662;SDS011;16578;53.266;7.920;2023-12-14T12:37:33;12.18;;;8.85;;
29662;SDS011;16578;53.266;7.920;2023-12-14T12:39:59;16.00;;;9.43;;
29662;SDS011;16578;53.266;7.920;2023-12-14T12:42:24;12.85;;;9.00;;
29662;SDS011;16578;53.266;7.920;2023-12-14T12:44:50;14.77;;;9.00;;
29662;SDS011;16578;53.266;7.920;2023-12-14T12:47:16;14.77;;;9.18;;
29662;SDS011;16578;53.266;7.920;2023-12-14T12:49:42;11.70;;;7.90;;
29662;SDS011;16578;53.266;7.920;2023-12-14T12:52:08;13.07;;;8.43;;
29662;SDS011;16578;53.266;7.920;2023-12-14T12:54:34;12.43;;;8.13;;
29662;SDS011;16578;53.266;7.920;2023-12-14T12:57:00;12.48;;;7.93;;
29662;SDS011;16578;53.266;7.920;2023-12-14T12:59:26;15.15;;;9.15;;
29662;SDS011;16578;53.266;7.920;2023-12-14T13:01:52;13.77;;;9.68;;
29662;SDS011;16578;53.266;7.920;2023-12-14T13:04:18;15.45;;;11.07;;
29662;SDS011;16578;53.266;7.920;2023-12-14T13:06:45;16.98;;;11.68;;
29662;SDS011;16578;53.266;7.920;2023-12-14T13:09:15;21.30;;;13.30;;
29662;SDS011;16578;53.266;7.920;2023-12-14T13:11:42;20.38;;;12.70;;
29662;SDS011;16578;53.266;7.920;2023-12-14T13:14:08;21.52;;;14.25;;
29662;SDS011;16578;53.266;7.920;2023-12-14T13:16:34;23.35;;;16.27;;
29662;SDS011;16578;53.266;7.920;2023-12-14T13:19:00;23.88;;;17.50;;
29662;SDS011;16578;53.266;7.920;2023-12-14T13:21:28;18.08;;;12.55;;
29662;SDS011;16578;53.266;7.920;2023-12-14T13:23:53;15.18;;;11.13;;
29662;SDS011;16578;53.266;7.920;2023-12-14T13:26:21;17.13;;;10.80;;
29662;SDS011;16578;53.266;7.920;2023-12-14T13:28:47;15.07;;;10.05;;
29662;SDS011;16578;53.266;7.920;2023-12-14T13:31:12;14.30;;;10.52;;
29662;SDS011;16578;53.266;7.920;2023-12-14T13:33:38;18.63;;;10.48;;
29662;SDS011;16578;53.266;7.920;2023-12-14T13:36:03;18.00;;;11.23;;
29662;SDS011;16578;53.266;7.920;2023-12-14T13:38:29;13.13;;;9.57;;
29662;SDS011;16578;53.266;7.920;2023-12-14T13:40:58;15.27;;;9.20;;
29662;SDS011;16578;53.266;7.920;2023-12-14T13:43:24;14.52;;;10.85;;
29662;SDS011;16578;53.266;7.920;2023-12-14T13:45:49;15.30;;;9.60;;
29662;SDS011;16578;53.266;7.920;2023-12-14T13:48:17;11.53;;;8.07;;
29662;SDS011;16578;53.266;7.920;2023-12-14T13:50:43;14.18;;;9.85;;
29662;SDS011;16578;53.266;7.920;2023-12-14T13:53:09;17.63;;;9.57;;
29662;SDS011;16578;53.266;7.920;2023-12-14T13:55:35;16.75;;;10.50;;
29662;SDS011;16578;53.266;7.920;2023-12-14T13:58:01;19.25;;;11.48;;
29662;SDS011;16578;53.266;7.920;2023-12-14T14:00:27;16.48;;;11.35;;
29662;SDS011;16578;53.266;7.920;2023-12-14T14:02:53;14.25;;;9.95;;
29662;SDS011;16578;53.266;7.920;2023-12-14T14:05:19;14.75;;;10.50;;
29662;SDS011;16578;53.266;7.920;2023-12-14T14:07:44;16.25;;;9.95;;
29662;SDS011;16578;53.266;7.920;2023-12-14T14:10:10;16.85;;;11.32;;
29662;SDS011;16578;53.266;7.920;2023-12-14T14:12:36;17.67;;;10.52;;
29662;SDS011;16578;53.266;7.920;2023-12-14T14:15:01;21.83;;;10.57;;
29662;SDS011;16578;53.266;7.920;2023-12-14T14:17:27;17.95;;;11.38;;
29662;SDS011;16578;53.266;7.920;2023-12-14T14:19:53;17.88;;;11.95;;
29662;SDS011;16578;53.266;7.920;2023-12-14T14:22:18;18.88;;;11.23;;
29662;SDS011;16578;53.266;7.920;2023-12-14T14:24:44;18.35;;;12.55;;
29662;SDS011;16578;53.266;7.920;2023-12-14T14:27:09;22.13;;;12.73;;
29662;SDS011;16578;53.266;7.920;2023-12-14T14:29:35;16.73;;;11.18;;
29662;SDS011;16578;53.266;7.920;2023-12-14T14:32:01;19.38;;;11.88;;
29662;SDS011;16578;53.266;7.920;2023-12-14T14:34:26;17.27;;;10.60;;
29662;SDS011;16578;53.266;7.920;2023-12-14T14:36:52;15.38;;;10.57;;
29662;SDS011;16578;53.266;7.920;2023-12-14T14:39:17;18.55;;;9.82;;